sensor_id;sensor_type;location;lat;lon;timestamp;P1;durP1;ratioP1;P2;durP2;ratioP2
48241;SDS011;34041;51.812;4.622;2023-02-27T00:02:08;7.57;;;4.22;;
48241;SDS011;34041;51.812;4.622;2023-02-27T00:05:08;7.93;;;3.53;;
48241;SDS011;34041;51.812;4.622;2023-02-27T00:08:09;7.30;;;4.13;;
48241;SDS011;34041;51.812;4.622;2023-02-27T00:11:09;9.18;;;3.42;;
48241;SDS011;34041;51.812;4.622;2023-02-27T00:14:09;8.33;;;3.43;;
48241;SDS011;34041;51.812;4.622;2023-02-27T00:17:10;7.47;;;3.67;;
48241;SDS011;34041;51.812;4.622;2023-02-27T00:20:11;7.47;;;3.33;;
48241;SDS011;34041;51.812;4.622;2023-02-27T00:23:12;5.80;;;2.83;;
48241;SDS011;34041;51.812;4.622;2023-02-27T00:26:14;8.25;;;3.30;;
48241;SDS011;34041;51.812;4.622;2023-02-27T00:29:14;6.13;;;3.23;;
48241;SDS011;34041;51.812;4.622;2023-02-27T00:32:15;5.83;;;2.60;;
48241;SDS011;34041;51.812;4.622;2023-02-27T00:35:15;4.93;;;3.10;;
48241;SDS011;34041;51.812;4.622;2023-02-27T00:38:15;5.75;;;2.55;;
48241;SDS011;34041;51.812;4.622;2023-02-27T00:41:15;5.33;;;2.70;;
48241;SDS011;34041;51.812;4.622;2023-02-27T00:44:16;5.13;;;2.38;;
48241;SDS011;34041;51.812;4.622;2023-02-27T00:47:16;5.15;;;2.60;;
48241;SDS011;34041;51.812;4.622;2023-02-27T00:50:16;4.43;;;2.20;;
48241;SDS011;34041;51.812;4.622;2023-02-27T00:53:16;4.13;;;2.08;;
48241;SDS011;34041;51.812;4.622;2023-02-27T00:56:17;5.67;;;2.47;;
48241;SDS011;34041;51.812;4.622;2023-02-27T00:59:17;4.93;;;2.00;;
48241;SDS011;34041;51.812;4.622;2023-02-27T01:02:17;4.57;;;2.70;;
48241;SDS011;34041;51.812;4.622;2023-02-27T01:05:17;3.83;;;2.22;;
48241;SDS011;34041;51.812;4.622;2023-02-27T01:08:18;3.58;;;1.92;;
48241;SDS011;34041;51.812;4.622;2023-02-27T01:11:19;4.50;;;2.22;;
48241;SDS011;34041;51.812;4.622;2023-02-27T01:14:19;5.53;;;2.17;;
48241;SDS011;34041;51.812;4.622;2023-02-27T01:17:20;4.87;;;1.77;;
48241;SDS011;34041;51.812;4.622;2023-02-27T01:20:20;6.35;;;2.35;;
48241;SDS011;34041;51.812;4.622;2023-02-27T01:23:21;4.97;;;1.90;;
48241;SDS011;34041;51.812;4.622;2023-02-27T01:26:21;5.35;;;1.90;;
48241;SDS011;34041;51.812;4.622;2023-02-27T01:29:21;5.40;;;1.65;;
48241;SDS011;34041;51.812;4.622;2023-02-27T01:32:22;4.43;;;1.93;;
48241;SDS011;34041;51.812;4.622;2023-02-27T01:35:22;4.10;;;2.00;;
48241;SDS011;34041;51.812;4.622;2023-02-27T01:38:22;3.03;;;1.98;;
48241;SDS011;34041;51.812;4.622;2023-02-27T01:41:23;4.10;;;1.97;;
48241;SDS011;34041;51.812;4.622;2023-02-27T01:44:27;2.72;;;1.58;;
48241;SDS011;34041;51.812;4.622;2023-02-27T01:47:28;3.42;;;1.55;;
48241;SDS011;34041;51.812;4.622;2023-02-27T01:50:28;5.03;;;1.80;;
48241;SDS011;34041;51.812;4.622;2023-02-27T01:53:29;3.95;;;1.55;;
48241;SDS011;34041;51.812;4.622;2023-02-27T01:56:30;5.93;;;1.98;;
48241;SDS011;34041;51.812;4.622;2023-02-27T01:59:32;3.67;;;1.48;;
48241;SDS011;34041;51.812;4.622;2023-02-27T02:02:36;6.13;;;1.65;;
48241;SDS011;34041;51.812;4.622;2023-02-27T02:05:37;3.40;;;1.27;;
48241;SDS011;34041;51.812;4.622;2023-02-27T02:08:38;4.13;;;1.98;;
48241;SDS011;34041;51.812;4.622;2023-02-27T02:11:40;3.08;;;1.40;;
48241;SDS011;34041;51.812;4.622;2023-02-27T02:14:41;5.35;;;1.75;;
48241;SDS011;34041;51.812;4.622;2023-02-27T02:17:45;3.42;;;1.42;;
48241;SDS011;34041;51.812;4.622;2023-02-27T02:24:19;4.18;;;1.45;;
48241;SDS011;34041;51.812;4.622;2023-02-27T02:30:57;3.40;;;1.52;;
48241;SDS011;34041;51.812;4.622;2023-02-27T02:34:07;2.60;;;1.10;;
48241;SDS011;34041;51.812;4.622;2023-02-27T02:43:30;2.50;;;1.30;;
48241;SDS011;34041;51.812;4.622;2023-02-27T02:46:46;4.50;;;2.13;;
48241;SDS011;34041;51.812;4.622;2023-02-27T02:56:02;3.05;;;1.40;;
48241;SDS011;34041;51.812;4.622;2023-02-27T03:02:19;4.00;;;1.33;;
48241;SDS011;34041;51.812;4.622;2023-02-27T03:05:22;3.95;;;1.30;;
48241;SDS011;34041;51.812;4.622;2023-02-27T03:08:25;3.85;;;1.50;;
48241;SDS011;34041;51.812;4.622;2023-02-27T03:11:28;5.68;;;1.77;;
48241;SDS011;34041;51.812;4.622;2023-02-27T03:14:34;2.75;;;1.35;;
48241;SDS011;34041;51.812;4.622;2023-02-27T03:17:43;3.95;;;1.60;;
48241;SDS011;34041;51.812;4.622;2023-02-27T03:20:47;3.45;;;1.20;;
48241;SDS011;34041;51.812;4.622;2023-02-27T03:23:49;2.67;;;1.30;;
48241;SDS011;34041;51.812;4.622;2023-02-27T03:26:51;2.97;;;0.95;;
48241;SDS011;34041;51.812;4.622;2023-02-27T03:29:58;3.90;;;1.30;;
48241;SDS011;34041;51.812;4.622;2023-02-27T03:33:01;2.60;;;1.15;;
48241;SDS011;34041;51.812;4.622;2023-02-27T03:36:08;1.80;;;0.93;;
48241;SDS011;34041;51.812;4.622;2023-02-27T03:42:13;2.20;;;1.03;;
48241;SDS011;34041;51.812;4.622;2023-02-27T03:45:24;4.80;;;1.40;;
48241;SDS011;34041;51.812;4.622;2023-02-27T03:48:27;2.25;;;0.93;;
48241;SDS011;34041;51.812;4.622;2023-02-27T03:51:27;3.67;;;1.33;;
48241;SDS011;34041;51.812;4.622;2023-02-27T03:54:41;2.90;;;1.35;;
48241;SDS011;34041;51.812;4.622;2023-02-27T03:57:45;4.55;;;1.40;;
48241;SDS011;34041;51.812;4.622;2023-02-27T04:00:46;3.05;;;1.10;;
48241;SDS011;34041;51.812;4.622;2023-02-27T04:03:53;3.33;;;1.23;;
48241;SDS011;34041;51.812;4.622;2023-02-27T04:06:57;4.30;;;1.17;;
48241;SDS011;34041;51.812;4.622;2023-02-27T04:10:20;3.70;;;1.33;;
48241;SDS011;34041;51.812;4.622;2023-02-27T04:22:50;2.17;;;1.00;;
48241;SDS011;34041;51.812;4.622;2023-02-27T04:32:21;3.25;;;1.25;;
48241;SDS011;34041;51.812;4.622;2023-02-27T04:35:27;2.55;;;0.95;;
48241;SDS011;34041;51.812;4.622;2023-02-27T04:38:40;2.95;;;1.17;;
48241;SDS011;34041;51.812;4.622;2023-02-27T04:41:50;2.45;;;0.93;;
48241;SDS011;34041;51.812;4.622;2023-02-27T04:44:52;2.13;;;1.35;;
48241;SDS011;34041;51.812;4.622;2023-02-27T04:47:56;3.67;;;1.40;;
48241;SDS011;34041;51.812;4.622;2023-02-27T04:51:01;2.65;;;0.98;;
48241;SDS011;34041;51.812;4.622;2023-02-27T04:57:08;3.10;;;1.25;;
48241;SDS011;34041;51.812;4.622;2023-02-27T05:03:11;2.00;;;1.15;;
48241;SDS011;34041;51.812;4.622;2023-02-27T05:06:14;2.85;;;0.88;;
48241;SDS011;34041;51.812;4.622;2023-02-27T05:09:20;3.28;;;1.10;;
48241;SDS011;34041;51.812;4.622;2023-02-27T05:12:22;2.05;;;1.02;;
48241;SDS011;34041;51.812;4.622;2023-02-27T05:15:27;2.10;;;1.05;;
48241;SDS011;34041;51.812;4.622;2023-02-27T05:18:28;3.53;;;1.23;;
48241;SDS011;34041;51.812;4.622;2023-02-27T05:21:30;3.38;;;1.38;;
48241;SDS011;34041;51.812;4.622;2023-02-27T05:24:44;5.47;;;1.90;;
48241;SDS011;34041;51.812;4.622;2023-02-27T05:27:53;3.95;;;1.55;;
48241;SDS011;34041;51.812;4.622;2023-02-27T05:30:56;3.03;;;1.02;;
48241;SDS011;34041;51.812;4.622;2023-02-27T05:34:00;4.65;;;1.75;;
48241;SDS011;34041;51.812;4.622;2023-02-27T05:40:03;3.13;;;1.15;;
48241;SDS011;34041;51.812;4.622;2023-02-27T05:43:15;3.22;;;1.40;;
48241;SDS011;34041;51.812;4.622;2023-02-27T05:46:22;1.23;;;0.80;;
48241;SDS011;34041;51.812;4.622;2023-02-27T05:49:25;2.55;;;1.10;;
48241;SDS011;34041;51.812;4.622;2023-02-27T05:52:26;4.32;;;1.70;;
48241;SDS011;34041;51.812;4.622;2023-02-27T05:55:41;2.67;;;1.33;;
48241;SDS011;34041;51.812;4.622;2023-02-27T05:58:46;3.70;;;1.30;;
48241;SDS011;34041;51.812;4.622;2023-02-27T06:01:48;3.50;;;1.58;;
48241;SDS011;34041;51.812;4.622;2023-02-27T06:04:49;3.57;;;1.50;;
48241;SDS011;34041;51.812;4.622;2023-02-27T06:07:49;2.53;;;1.33;;
48241;SDS011;34041;51.812;4.622;2023-02-27T06:10:50;3.45;;;1.38;;
48241;SDS011;34041;51.812;4.622;2023-02-27T06:13:51;3.22;;;1.38;;
48241;SDS011;34041;51.812;4.622;2023-02-27T06:16:51;4.63;;;1.60;;
48241;SDS011;34041;51.812;4.622;2023-02-27T06:19:51;3.00;;;1.02;;
48241;SDS011;34041;51.812;4.622;2023-02-27T06:22:51;6.60;;;1.43;;
48241;SDS011;34041;51.812;4.622;2023-02-27T06:25:52;4.37;;;1.60;;
48241;SDS011;34041;51.812;4.622;2023-02-27T06:28:52;3.88;;;1.40;;
48241;SDS011;34041;51.812;4.622;2023-02-27T06:31:52;3.17;;;1.30;;
48241;SDS011;34041;51.812;4.622;2023-02-27T06:34:52;4.90;;;1.87;;
48241;SDS011;34041;51.812;4.622;2023-02-27T06:37:53;6.68;;;1.48;;
48241;SDS011;34041;51.812;4.622;2023-02-27T06:40:53;2.17;;;1.15;;
48241;SDS011;34041;51.812;4.622;2023-02-27T06:43:54;4.97;;;1.50;;
48241;SDS011;34041;51.812;4.622;2023-02-27T06:46:55;4.22;;;1.98;;
48241;SDS011;34041;51.812;4.622;2023-02-27T06:49:55;3.53;;;1.33;;
48241;SDS011;34041;51.812;4.622;2023-02-27T06:52:55;2.60;;;1.38;;
48241;SDS011;34041;51.812;4.622;2023-02-27T06:55:56;6.33;;;1.33;;
48241;SDS011;34041;51.812;4.622;2023-02-27T06:58:56;2.95;;;1.23;;
48241;SDS011;34041;51.812;4.622;2023-02-27T07:01:57;4.88;;;1.13;;
48241;SDS011;34041;51.812;4.622;2023-02-27T07:04:58;2.55;;;1.25;;
48241;SDS011;34041;51.812;4.622;2023-02-27T07:07:58;3.30;;;1.17;;
48241;SDS011;34041;51.812;4.622;2023-02-27T07:10:58;2.93;;;1.37;;
48241;SDS011;34041;51.812;4.622;2023-02-27T07:13:58;3.20;;;1.60;;
48241;SDS011;34041;51.812;4.622;2023-02-27T07:16:59;2.33;;;1.20;;
48241;SDS011;34041;51.812;4.622;2023-02-27T07:20:04;3.05;;;1.13;;
48241;SDS011;34041;51.812;4.622;2023-02-27T07:23:05;2.75;;;1.45;;
48241;SDS011;34041;51.812;4.622;2023-02-27T07:26:05;3.05;;;1.35;;
48241;SDS011;34041;51.812;4.622;2023-02-27T07:29:06;3.50;;;1.58;;
48241;SDS011;34041;51.812;4.622;2023-02-27T07:32:06;3.72;;;1.50;;
48241;SDS011;34041;51.812;4.622;2023-02-27T07:35:06;2.57;;;1.63;;
48241;SDS011;34041;51.812;4.622;2023-02-27T07:38:07;2.88;;;1.20;;
48241;SDS011;34041;51.812;4.622;2023-02-27T07:41:07;3.07;;;1.70;;
48241;SDS011;34041;51.812;4.622;2023-02-27T07:44:07;2.25;;;1.20;;
48241;SDS011;34041;51.812;4.622;2023-02-27T07:47:08;4.90;;;1.85;;
48241;SDS011;34041;51.812;4.622;2023-02-27T07:50:08;4.57;;;1.80;;
48241;SDS011;34041;51.812;4.622;2023-02-27T07:53:12;3.47;;;1.58;;
48241;SDS011;34041;51.812;4.622;2023-02-27T07:56:13;3.75;;;1.40;;
48241;SDS011;34041;51.812;4.622;2023-02-27T07:59:13;4.70;;;1.77;;
48241;SDS011;34041;51.812;4.622;2023-02-27T08:02:13;3.60;;;1.93;;
48241;SDS011;34041;51.812;4.622;2023-02-27T08:05:13;4.10;;;1.40;;
48241;SDS011;34041;51.812;4.622;2023-02-27T08:08:14;2.47;;;1.20;;
48241;SDS011;34041;51.812;4.622;2023-02-27T08:11:14;2.97;;;1.42;;
48241;SDS011;34041;51.812;4.622;2023-02-27T08:14:15;1.93;;;0.83;;
48241;SDS011;34041;51.812;4.622;2023-02-27T08:17:15;3.30;;;1.43;;
48241;SDS011;34041;51.812;4.622;2023-02-27T08:20:15;3.50;;;1.70;;
48241;SDS011;34041;51.812;4.622;2023-02-27T08:23:16;3.72;;;1.77;;
48241;SDS011;34041;51.812;4.622;2023-02-27T08:26:16;4.47;;;1.60;;
48241;SDS011;34041;51.812;4.622;2023-02-27T08:29:16;3.92;;;1.17;;
48241;SDS011;34041;51.812;4.622;2023-02-27T08:32:16;4.68;;;1.35;;
48241;SDS011;34041;51.812;4.622;2023-02-27T08:35:17;7.75;;;1.55;;
48241;SDS011;34041;51.812;4.622;2023-02-27T08:38:17;3.97;;;1.67;;
48241;SDS011;34041;51.812;4.622;2023-02-27T08:41:17;3.30;;;1.30;;
48241;SDS011;34041;51.812;4.622;2023-02-27T08:44:18;4.53;;;1.45;;
48241;SDS011;34041;51.812;4.622;2023-02-27T08:47:18;4.20;;;1.15;;
48241;SDS011;34041;51.812;4.622;2023-02-27T08:50:18;2.83;;;1.50;;
48241;SDS011;34041;51.812;4.622;2023-02-27T08:53:19;2.13;;;1.30;;
48241;SDS011;34041;51.812;4.622;2023-02-27T08:56:19;6.20;;;1.70;;
48241;SDS011;34041;51.812;4.622;2023-02-27T08:59:19;3.67;;;1.17;;
48241;SDS011;34041;51.812;4.622;2023-02-27T09:02:20;3.50;;;0.93;;
48241;SDS011;34041;51.812;4.622;2023-02-27T09:05:24;5.22;;;1.45;;
48241;SDS011;34041;51.812;4.622;2023-02-27T09:08:25;2.42;;;1.40;;
48241;SDS011;34041;51.812;4.622;2023-02-27T09:11:25;3.00;;;1.52;;
48241;SDS011;34041;51.812;4.622;2023-02-27T09:14:26;4.70;;;1.52;;
48241;SDS011;34041;51.812;4.622;2023-02-27T09:17:27;2.65;;;1.48;;
48241;SDS011;34041;51.812;4.622;2023-02-27T09:20:28;4.80;;;1.85;;
48241;SDS011;34041;51.812;4.622;2023-02-27T09:23:29;4.38;;;1.00;;
48241;SDS011;34041;51.812;4.622;2023-02-27T09:26:29;3.17;;;1.17;;
48241;SDS011;34041;51.812;4.622;2023-02-27T09:29:29;2.63;;;1.23;;
48241;SDS011;34041;51.812;4.622;2023-02-27T09:32:29;4.45;;;1.02;;
48241;SDS011;34041;51.812;4.622;2023-02-27T09:35:30;3.70;;;1.60;;
48241;SDS011;34041;51.812;4.622;2023-02-27T09:38:31;4.18;;;1.17;;
48241;SDS011;34041;51.812;4.622;2023-02-27T09:44:34;4.43;;;1.23;;
48241;SDS011;34041;51.812;4.622;2023-02-27T09:47:37;3.53;;;1.35;;
48241;SDS011;34041;51.812;4.622;2023-02-27T09:50:39;3.67;;;1.17;;
48241;SDS011;34041;51.812;4.622;2023-02-27T09:53:41;2.60;;;1.20;;
48241;SDS011;34041;51.812;4.622;2023-02-27T09:56:51;3.63;;;1.15;;
48241;SDS011;34041;51.812;4.622;2023-02-27T09:59:56;2.50;;;1.10;;
48241;SDS011;34041;51.812;4.622;2023-02-27T10:03:02;3.45;;;1.27;;
48241;SDS011;34041;51.812;4.622;2023-02-27T10:06:26;3.60;;;1.23;;
48241;SDS011;34041;51.812;4.622;2023-02-27T10:15:33;3.20;;;1.13;;
48241;SDS011;34041;51.812;4.622;2023-02-27T10:21:54;1.88;;;1.05;;
48241;SDS011;34041;51.812;4.622;2023-02-27T10:24:58;3.88;;;1.30;;
48241;SDS011;34041;51.812;4.622;2023-02-27T10:28:00;1.58;;;0.85;;
48241;SDS011;34041;51.812;4.622;2023-02-27T10:31:02;3.70;;;1.45;;
48241;SDS011;34041;51.812;4.622;2023-02-27T10:34:14;2.10;;;0.95;;
48241;SDS011;34041;51.812;4.622;2023-02-27T10:37:17;3.78;;;1.42;;
48241;SDS011;34041;51.812;4.622;2023-02-27T10:40:19;3.00;;;1.33;;
48241;SDS011;34041;51.812;4.622;2023-02-27T10:43:20;2.78;;;1.23;;
48241;SDS011;34041;51.812;4.622;2023-02-27T10:46:41;2.03;;;1.17;;
48241;SDS011;34041;51.812;4.622;2023-02-27T10:49:40;2.60;;;1.02;;
48241;SDS011;34041;51.812;4.622;2023-02-27T10:52:49;3.88;;;1.50;;
48241;SDS011;34041;51.812;4.622;2023-02-27T10:56:05;2.42;;;1.50;;
48241;SDS011;34041;51.812;4.622;2023-02-27T10:59:06;2.72;;;1.10;;
48241;SDS011;34041;51.812;4.622;2023-02-27T11:05:24;4.90;;;1.30;;
48241;SDS011;34041;51.812;4.622;2023-02-27T11:08:26;2.80;;;1.30;;
48241;SDS011;34041;51.812;4.622;2023-02-27T11:11:27;4.10;;;1.08;;
48241;SDS011;34041;51.812;4.622;2023-02-27T11:14:28;3.85;;;1.48;;
48241;SDS011;34041;51.812;4.622;2023-02-27T11:17:30;5.32;;;1.90;;
48241;SDS011;34041;51.812;4.622;2023-02-27T11:20:33;2.38;;;1.40;;
48241;SDS011;34041;51.812;4.622;2023-02-27T11:23:35;6.35;;;1.20;;
48241;SDS011;34041;51.812;4.622;2023-02-27T11:26:37;6.40;;;2.35;;
48241;SDS011;34041;51.812;4.622;2023-02-27T11:29:37;4.28;;;1.95;;
48241;SDS011;34041;51.812;4.622;2023-02-27T11:32:47;3.85;;;1.63;;
48241;SDS011;34041;51.812;4.622;2023-02-27T11:35:49;3.90;;;1.25;;
48241;SDS011;34041;51.812;4.622;2023-02-27T11:38:53;3.35;;;1.20;;
48241;SDS011;34041;51.812;4.622;2023-02-27T11:41:55;2.80;;;1.40;;
48241;SDS011;34041;51.812;4.622;2023-02-27T11:45:04;3.70;;;1.17;;
48241;SDS011;34041;51.812;4.622;2023-02-27T11:54:26;5.72;;;1.42;;
48241;SDS011;34041;51.812;4.622;2023-02-27T11:57:32;1.85;;;0.90;;
48241;SDS011;34041;51.812;4.622;2023-02-27T12:01:21;3.05;;;1.23;;
48241;SDS011;34041;51.812;4.622;2023-02-27T12:04:08;3.58;;;1.60;;
48241;SDS011;34041;51.812;4.622;2023-02-27T12:07:11;4.25;;;1.27;;
48241;SDS011;34041;51.812;4.622;2023-02-27T12:10:22;2.08;;;1.20;;
48241;SDS011;34041;51.812;4.622;2023-02-27T12:13:26;3.88;;;1.67;;
48241;SDS011;34041;51.812;4.622;2023-02-27T12:16:41;2.17;;;1.10;;
48241;SDS011;34041;51.812;4.622;2023-02-27T12:22:53;5.35;;;1.20;;
48241;SDS011;34041;51.812;4.622;2023-02-27T12:29:02;2.83;;;1.33;;
48241;SDS011;34041;51.812;4.622;2023-02-27T12:35:18;8.38;;;1.48;;
48241;SDS011;34041;51.812;4.622;2023-02-27T12:38:19;5.53;;;1.02;;
48241;SDS011;34041;51.812;4.622;2023-02-27T12:41:28;3.03;;;0.88;;
48241;SDS011;34041;51.812;4.622;2023-02-27T13:00:32;3.25;;;1.40;;
48241;SDS011;34041;51.812;4.622;2023-02-27T13:07:01;3.58;;;1.42;;
48241;SDS011;34041;51.812;4.622;2023-02-27T13:16:06;3.50;;;1.50;;
48241;SDS011;34041;51.812;4.622;2023-02-27T13:25:24;3.63;;;1.20;;
48241;SDS011;34041;51.812;4.622;2023-02-27T13:28:25;2.80;;;1.17;;
48241;SDS011;34041;51.812;4.622;2023-02-27T13:34:29;3.73;;;1.17;;
48241;SDS011;34041;51.812;4.622;2023-02-27T13:37:51;2.70;;;0.87;;
48241;SDS011;34041;51.812;4.622;2023-02-27T13:40:51;2.90;;;0.95;;
48241;SDS011;34041;51.812;4.622;2023-02-27T13:43:55;2.47;;;0.83;;
48241;SDS011;34041;51.812;4.622;2023-02-27T13:46:57;2.37;;;1.13;;
48241;SDS011;34041;51.812;4.622;2023-02-27T13:53:16;2.37;;;1.00;;
48241;SDS011;34041;51.812;4.622;2023-02-27T13:56:20;1.42;;;0.93;;
48241;SDS011;34041;51.812;4.622;2023-02-27T13:59:34;2.47;;;0.80;;
48241;SDS011;34041;51.812;4.622;2023-02-27T14:02:40;2.78;;;0.95;;
48241;SDS011;34041;51.812;4.622;2023-02-27T14:05:42;3.78;;;1.25;;
48241;SDS011;34041;51.812;4.622;2023-02-27T14:08:46;3.10;;;1.00;;
48241;SDS011;34041;51.812;4.622;2023-02-27T14:14:47;2.42;;;0.88;;
48241;SDS011;34041;51.812;4.622;2023-02-27T14:17:53;2.22;;;1.10;;
48241;SDS011;34041;51.812;4.622;2023-02-27T14:20:53;1.73;;;0.70;;
48241;SDS011;34041;51.812;4.622;2023-02-27T14:23:54;3.08;;;1.00;;
48241;SDS011;34041;51.812;4.622;2023-02-27T14:26:54;2.97;;;1.48;;
48241;SDS011;34041;51.812;4.622;2023-02-27T14:29:56;4.97;;;1.00;;
48241;SDS011;34041;51.812;4.622;2023-02-27T14:33:17;4.00;;;1.70;;
48241;SDS011;34041;51.812;4.622;2023-02-27T14:36:23;4.55;;;1.48;;
48241;SDS011;34041;51.812;4.622;2023-02-27T14:39:26;5.82;;;1.33;;
48241;SDS011;34041;51.812;4.622;2023-02-27T14:45:46;3.28;;;1.63;;
48241;SDS011;34041;51.812;4.622;2023-02-27T14:48:46;3.28;;;1.33;;
48241;SDS011;34041;51.812;4.622;2023-02-27T14:51:51;3.65;;;1.55;;
48241;SDS011;34041;51.812;4.622;2023-02-27T14:54:56;2.22;;;1.13;;
48241;SDS011;34041;51.812;4.622;2023-02-27T15:01:10;2.17;;;0.93;;
48241;SDS011;34041;51.812;4.622;2023-02-27T15:04:14;3.42;;;1.30;;
48241;SDS011;34041;51.812;4.622;2023-02-27T15:07:17;2.50;;;1.00;;
48241;SDS011;34041;51.812;4.622;2023-02-27T15:10:20;2.50;;;1.42;;
48241;SDS011;34041;51.812;4.622;2023-02-27T15:16:37;2.67;;;1.20;;
48241;SDS011;34041;51.812;4.622;2023-02-27T15:19:37;2.97;;;1.65;;
48241;SDS011;34041;51.812;4.622;2023-02-27T15:22:44;4.28;;;1.50;;
48241;SDS011;34041;51.812;4.622;2023-02-27T15:25:44;3.80;;;1.27;;
48241;SDS011;34041;51.812;4.622;2023-02-27T15:28:46;2.37;;;1.20;;
48241;SDS011;34041;51.812;4.622;2023-02-27T15:31:47;1.90;;;1.08;;
48241;SDS011;34041;51.812;4.622;2023-02-27T15:34:47;2.40;;;1.00;;
48241;SDS011;34041;51.812;4.622;2023-02-27T15:37:53;1.73;;;1.00;;
48241;SDS011;34041;51.812;4.622;2023-02-27T15:40:53;2.70;;;1.10;;
48241;SDS011;34041;51.812;4.622;2023-02-27T15:43:54;3.13;;;1.50;;
48241;SDS011;34041;51.812;4.622;2023-02-27T15:46:54;1.38;;;0.85;;
48241;SDS011;34041;51.812;4.622;2023-02-27T15:50:00;2.25;;;1.08;;
48241;SDS011;34041;51.812;4.622;2023-02-27T15:56:06;2.00;;;1.30;;
48241;SDS011;34041;51.812;4.622;2023-02-27T15:59:10;2.75;;;1.20;;
48241;SDS011;34041;51.812;4.622;2023-02-27T16:02:14;2.50;;;1.20;;
48241;SDS011;34041;51.812;4.622;2023-02-27T16:05:16;3.00;;;1.15;;
48241;SDS011;34041;51.812;4.622;2023-02-27T16:08:17;2.08;;;1.00;;
48241;SDS011;34041;51.812;4.622;2023-02-27T16:11:23;1.85;;;0.88;;
48241;SDS011;34041;51.812;4.622;2023-02-27T16:17:24;2.85;;;0.90;;
48241;SDS011;34041;51.812;4.622;2023-02-27T16:23:31;2.50;;;1.20;;
48241;SDS011;34041;51.812;4.622;2023-02-27T16:26:32;3.53;;;1.25;;
48241;SDS011;34041;51.812;4.622;2023-02-27T16:29:38;2.58;;;1.45;;
48241;SDS011;34041;51.812;4.622;2023-02-27T16:32:40;4.45;;;1.80;;
48241;SDS011;34041;51.812;4.622;2023-02-27T16:35:42;3.22;;;1.00;;
48241;SDS011;34041;51.812;4.622;2023-02-27T16:38:43;2.00;;;0.98;;
48241;SDS011;34041;51.812;4.622;2023-02-27T16:41:43;3.10;;;1.38;;
48241;SDS011;34041;51.812;4.622;2023-02-27T16:44:43;2.23;;;1.30;;
48241;SDS011;34041;51.812;4.622;2023-02-27T16:47:47;2.05;;;0.98;;
48241;SDS011;34041;51.812;4.622;2023-02-27T16:50:47;3.60;;;1.52;;
48241;SDS011;34041;51.812;4.622;2023-02-27T16:53:47;1.63;;;0.63;;
48241;SDS011;34041;51.812;4.622;2023-02-27T16:56:48;1.90;;;0.82;;
48241;SDS011;34041;51.812;4.622;2023-02-27T16:59:49;3.35;;;1.13;;
48241;SDS011;34041;51.812;4.622;2023-02-27T17:02:50;3.85;;;1.25;;
48241;SDS011;34041;51.812;4.622;2023-02-27T17:05:50;1.50;;;0.80;;
48241;SDS011;34041;51.812;4.622;2023-02-27T17:08:51;1.65;;;0.65;;
48241;SDS011;34041;51.812;4.622;2023-02-27T17:11:51;3.77;;;0.87;;
48241;SDS011;34041;51.812;4.622;2023-02-27T17:14:52;3.17;;;1.27;;
48241;SDS011;34041;51.812;4.622;2023-02-27T17:17:52;2.10;;;1.10;;
48241;SDS011;34041;51.812;4.622;2023-02-27T17:20:53;2.65;;;1.23;;
48241;SDS011;34041;51.812;4.622;2023-02-27T17:23:55;2.72;;;1.10;;
48241;SDS011;34041;51.812;4.622;2023-02-27T17:26:56;3.17;;;1.30;;
48241;SDS011;34041;51.812;4.622;2023-02-27T17:29:56;2.37;;;1.03;;
48241;SDS011;34041;51.812;4.622;2023-02-27T17:32:56;2.70;;;1.15;;
48241;SDS011;34041;51.812;4.622;2023-02-27T17:36:03;1.85;;;1.00;;
48241;SDS011;34041;51.812;4.622;2023-02-27T17:39:04;4.13;;;1.33;;
48241;SDS011;34041;51.812;4.622;2023-02-27T17:42:04;3.38;;;1.52;;
48241;SDS011;34041;51.812;4.622;2023-02-27T17:45:05;3.43;;;1.40;;
48241;SDS011;34041;51.812;4.622;2023-02-27T17:48:05;2.53;;;1.20;;
48241;SDS011;34041;51.812;4.622;2023-02-27T17:51:07;4.47;;;1.73;;
48241;SDS011;34041;51.812;4.622;2023-02-27T17:54:07;2.88;;;1.63;;
48241;SDS011;34041;51.812;4.622;2023-02-27T17:57:07;2.70;;;1.73;;
48241;SDS011;34041;51.812;4.622;2023-02-27T18:00:11;2.70;;;1.40;;
48241;SDS011;34041;51.812;4.622;2023-02-27T18:03:14;3.28;;;1.70;;
48241;SDS011;34041;51.812;4.622;2023-02-27T18:06:15;3.67;;;1.98;;
48241;SDS011;34041;51.812;4.622;2023-02-27T18:09:16;2.30;;;1.33;;
48241;SDS011;34041;51.812;4.622;2023-02-27T18:12:16;2.65;;;1.40;;
48241;SDS011;34041;51.812;4.622;2023-02-27T18:15:17;2.80;;;1.77;;
48241;SDS011;34041;51.812;4.622;2023-02-27T18:18:17;4.70;;;1.50;;
48241;SDS011;34041;51.812;4.622;2023-02-27T18:21:18;4.88;;;1.75;;
48241;SDS011;34041;51.812;4.622;2023-02-27T18:24:19;4.95;;;2.22;;
48241;SDS011;34041;51.812;4.622;2023-02-27T18:27:19;3.88;;;2.00;;
48241;SDS011;34041;51.812;4.622;2023-02-27T18:30:21;5.78;;;2.33;;
48241;SDS011;34041;51.812;4.622;2023-02-27T18:33:22;4.80;;;2.25;;
48241;SDS011;34041;51.812;4.622;2023-02-27T18:36:22;5.10;;;2.85;;
48241;SDS011;34041;51.812;4.622;2023-02-27T18:39:22;5.40;;;2.50;;
48241;SDS011;34041;51.812;4.622;2023-02-27T18:42:23;6.47;;;2.83;;
48241;SDS011;34041;51.812;4.622;2023-02-27T18:45:23;4.97;;;2.40;;
48241;SDS011;34041;51.812;4.622;2023-02-27T18:48:23;5.68;;;3.20;;
48241;SDS011;34041;51.812;4.622;2023-02-27T18:51:24;7.05;;;2.78;;
48241;SDS011;34041;51.812;4.622;2023-02-27T18:54:24;8.32;;;3.20;;
48241;SDS011;34041;51.812;4.622;2023-02-27T18:57:24;9.17;;;4.40;;
48241;SDS011;34041;51.812;4.622;2023-02-27T19:00:24;7.70;;;3.63;;
48241;SDS011;34041;51.812;4.622;2023-02-27T19:03:25;5.90;;;3.03;;
48241;SDS011;34041;51.812;4.622;2023-02-27T19:06:26;8.18;;;4.00;;
48241;SDS011;34041;51.812;4.622;2023-02-27T19:09:26;5.82;;;3.20;;
48241;SDS011;34041;51.812;4.622;2023-02-27T19:12:31;6.95;;;3.42;;
48241;SDS011;34041;51.812;4.622;2023-02-27T19:15:32;6.72;;;3.63;;
48241;SDS011;34041;51.812;4.622;2023-02-27T19:18:32;7.00;;;2.92;;
48241;SDS011;34041;51.812;4.622;2023-02-27T19:21:32;6.90;;;3.10;;
48241;SDS011;34041;51.812;4.622;2023-02-27T19:24:33;7.18;;;3.75;;
48241;SDS011;34041;51.812;4.622;2023-02-27T19:27:33;7.90;;;3.22;;
48241;SDS011;34041;51.812;4.622;2023-02-27T19:30:33;6.73;;;3.60;;
48241;SDS011;34041;51.812;4.622;2023-02-27T19:33:33;5.80;;;3.30;;
48241;SDS011;34041;51.812;4.622;2023-02-27T19:36:34;6.70;;;3.45;;
48241;SDS011;34041;51.812;4.622;2023-02-27T19:39:34;6.43;;;3.30;;
48241;SDS011;34041;51.812;4.622;2023-02-27T19:42:34;5.47;;;3.53;;
48241;SDS011;34041;51.812;4.622;2023-02-27T19:45:38;5.03;;;3.00;;
48241;SDS011;34041;51.812;4.622;2023-02-27T19:48:39;3.97;;;2.58;;
48241;SDS011;34041;51.812;4.622;2023-02-27T19:51:39;5.03;;;2.92;;
48241;SDS011;34041;51.812;4.622;2023-02-27T19:54:40;8.82;;;2.67;;
48241;SDS011;34041;51.812;4.622;2023-02-27T19:57:40;4.27;;;2.73;;
48241;SDS011;34041;51.812;4.622;2023-02-27T20:00:41;5.43;;;3.22;;
48241;SDS011;34041;51.812;4.622;2023-02-27T20:03:41;4.70;;;3.00;;
48241;SDS011;34041;51.812;4.622;2023-02-27T20:06:43;4.18;;;2.63;;
48241;SDS011;34041;51.812;4.622;2023-02-27T20:09:43;4.07;;;2.45;;
48241;SDS011;34041;51.812;4.622;2023-02-27T20:12:44;4.15;;;2.58;;
48241;SDS011;34041;51.812;4.622;2023-02-27T20:15:44;3.50;;;2.10;;
48241;SDS011;34041;51.812;4.622;2023-02-27T20:18:44;3.53;;;2.07;;
48241;SDS011;34041;51.812;4.622;2023-02-27T20:21:45;4.97;;;3.10;;
48241;SDS011;34041;51.812;4.622;2023-02-27T20:24:46;5.43;;;2.47;;
48241;SDS011;34041;51.812;4.622;2023-02-27T20:27:46;5.50;;;2.70;;
48241;SDS011;34041;51.812;4.622;2023-02-27T20:30:46;4.57;;;2.10;;
48241;SDS011;34041;51.812;4.622;2023-02-27T20:33:47;6.43;;;2.63;;
48241;SDS011;34041;51.812;4.622;2023-02-27T20:36:48;4.90;;;2.30;;
48241;SDS011;34041;51.812;4.622;2023-02-27T20:39:49;5.15;;;2.30;;
48241;SDS011;34041;51.812;4.622;2023-02-27T20:42:49;3.58;;;2.33;;